Time;durP1;ratioP1;P1;durP2;ratioP2;P2;SDS_P1;SDS_P2;PMS_P1;PMS_P2;Temp;Humidity;BMP_temperature;BMP_pressure;BME280_temperature;BME280_humidity;BME280_pressure;Samples;Min_cycle;Max_cycle;Signal;HPM_P1;HPM_P2
2022/03/24 00:02:21;;;;;;;31.40;13.87;;;6.30;99.90;;;;;;5001408;28;20377;-82
2022/03/24 00:04:48;;;;;;;35.53;14.43;;;6.20;99.90;;;;;;4984149;28;20215;-84
2022/03/24 00:07:15;;;;;;;27.20;13.30;;;6.60;99.90;;;;;;5001108;28;20430;-84
2022/03/24 00:09:43;;;;;;;29.20;13.07;;;6.20;99.90;;;;;;4997655;28;20211;-85
2022/03/24 00:12:10;;;;;;;30.23;14.13;;;6.80;99.90;;;;;;4999783;28;20315;-85
2022/03/24 00:14:37;;;;;;;26.53;12.73;;;6.30;99.90;;;;;;4991824;28;20228;-84
2022/03/24 00:17:04;;;;;;;25.63;13.33;;;6.60;99.90;;;;;;4989448;28;20263;-85
2022/03/24 00:19:31;;;;;;;32.63;14.17;;;7.00;99.90;;;;;;4990835;28;20239;-85
2022/03/24 00:21:58;;;;;;;32.13;13.53;;;6.00;99.90;;;;;;4997436;28;20664;-83
2022/03/24 00:24:25;;;;;;;32.07;13.77;;;5.90;99.90;;;;;;5006514;28;20239;-84
2022/03/24 00:26:52;;;;;;;35.77;14.07;;;;;;;;;;4992220;28;20284;-83
2022/03/24 00:29:19;;;;;;;31.50;12.93;;;5.90;99.90;;;;;;5006123;28;20255;-85
2022/03/24 00:31:46;;;;;;;30.73;14.10;;;5.90;99.90;;;;;;5009142;28;20325;-84
2022/03/24 00:34:13;;;;;;;33.73;14.77;;;6.00;99.90;;;;;;5002617;28;20220;-83
2022/03/24 00:36:40;;;;;;;31.37;14.83;;;5.90;99.90;;;;;;4987107;28;20260;-84
2022/03/24 00:39:07;;;;;;;32.93;14.13;;;5.90;99.90;;;;;;5005081;28;20245;-84
2022/03/24 00:41:35;;;;;;;30.50;13.83;;;5.80;99.90;;;;;;4992421;28;20856;-84
2022/03/24 00:44:03;;;;;;;31.50;14.00;;;5.80;99.90;;;;;;5002104;28;20233;-81
2022/03/24 00:46:31;;;;;;;33.53;15.17;;;5.80;99.90;;;;;;5006897;28;20251;-82
2022/03/24 00:48:58;;;;;;;32.57;14.57;;;5.80;99.90;;;;;;4995263;28;20220;-82
2022/03/24 00:51:25;;;;;;;30.70;14.47;;;5.70;99.90;;;;;;4984551;28;20638;-83
2022/03/24 00:53:52;;;;;;;26.90;13.67;;;5.80;99.90;;;;;;4989539;28;20232;-84
2022/03/24 00:56:20;;;;;;;25.73;14.03;;;5.70;99.90;;;;;;5006069;28;20213;-84
2022/03/24 00:58:47;;;;;;;32.30;15.03;;;5.70;99.90;;;;;;5012758;28;20662;-84
2022/03/24 01:01:14;;;;;;;32.53;14.67;;;5.70;99.90;;;;;;4996749;28;20237;-83
2022/03/24 01:03:42;;;;;;;27.73;14.30;;;5.70;99.90;;;;;;4993598;28;20275;-84
2022/03/24 01:06:10;;;;;;;29.33;14.43;;;5.70;99.90;;;;;;5002984;28;20214;-84
2022/03/24 01:08:37;;;;;;;29.33;14.47;;;5.70;99.90;;;;;;4999552;28;20251;-82
2022/03/24 01:11:05;;;;;;;30.00;15.03;;;5.80;99.90;;;;;;5001200;28;20236;-82
2022/03/24 01:13:35;;;;;;;42.07;16.00;;;5.60;99.90;;;;;;5003362;28;20229;-83
2022/03/24 01:16:03;;;;;;;33.87;14.70;;;5.30;99.90;;;;;;5000825;28;20214;-84
2022/03/24 01:18:34;;;;;;;36.67;15.20;;;5.60;99.90;;;;;;5006236;28;20234;-83
2022/03/24 01:21:05;;;;;;;36.53;15.50;;;5.80;99.90;;;;;;4990265;28;20234;-84
2022/03/24 01:23:33;;;;;;;34.27;15.03;;;5.70;99.90;;;;;;4988969;28;20220;-83
2022/03/24 01:26:00;;;;;;;35.33;15.27;;;5.50;99.90;;;;;;5012617;28;21271;-83
2022/03/24 01:28:28;;;;;;;41.30;16.33;;;5.30;99.90;;;;;;4989492;28;20672;-83
2022/03/24 01:30:55;;;;;;;41.47;16.17;;;5.50;99.90;;;;;;5001098;28;20653;-83
2022/03/24 01:33:24;;;;;;;35.30;16.53;;;5.40;99.90;;;;;;5007112;28;20602;-84
2022/03/24 01:35:52;;;;;;;33.17;16.27;;;5.40;99.90;;;;;;5015795;28;20260;-84
2022/03/24 01:38:20;;;;;;;31.73;15.23;;;5.30;99.90;;;;;;5005909;28;20241;-83
2022/03/24 01:40:46;;;;;;;30.57;16.00;;;5.30;99.90;;;;;;5018329;28;20991;-83
2022/03/24 01:43:14;;;;;;;36.57;16.73;;;5.30;99.90;;;;;;4999468;28;20888;-85
2022/03/24 01:45:41;;;;;;;39.27;15.67;;;5.30;99.90;;;;;;5010252;28;20311;-82
2022/03/24 01:48:08;;;;;;;36.30;16.47;;;5.20;99.90;;;;;;4994430;28;20218;-82
2022/03/24 01:50:37;;;;;;;38.67;18.70;;;5.20;99.90;;;;;;4999996;28;20219;-84
2022/03/24 01:53:05;;;;;;;34.57;17.53;;;5.10;99.90;;;;;;4993785;28;20852;-83
2022/03/24 01:55:33;;;;;;;40.43;18.10;;;5.10;99.90;;;;;;5008744;28;20297;-84
2022/03/24 01:58:02;;;;;;;38.90;18.03;;;5.10;99.90;;;;;;4989309;28;21164;-83
2022/03/24 02:00:30;;;;;;;35.93;17.47;;;5.10;99.90;;;;;;4996020;28;20629;-83
2022/03/24 02:03:02;;;;;;;45.10;17.83;;;5.10;99.90;;;;;;5010376;28;20243;-84
2022/03/24 02:05:34;;;;;;;46.33;18.83;;;5.00;99.90;;;;;;4993021;28;21025;-85
2022/03/24 02:08:03;;;;;;;41.37;18.97;;;5.00;99.90;;;;;;5005788;28;20289;-84
2022/03/24 02:10:31;;;;;;;41.73;18.47;;;5.00;99.90;;;;;;4990121;28;20215;-85
2022/03/24 02:12:59;;;;;;;37.30;18.03;;;5.00;99.90;;;;;;5013801;28;20893;-85
2022/03/24 02:15:27;;;;;;;38.40;18.50;;;4.90;99.90;;;;;;5001138;28;20246;-84
2022/03/24 02:17:55;;;;;;;44.13;18.00;;;4.90;99.90;;;;;;5000580;28;20306;-84
2022/03/24 02:20:23;;;;;;;34.83;17.93;;;4.90;99.90;;;;;;4986486;28;20254;-84
2022/03/24 02:22:51;;;;;;;36.23;17.23;;;4.90;99.90;;;;;;5010521;28;20280;-83
2022/03/24 02:25:18;;;;;;;34.90;16.70;;;4.90;99.90;;;;;;4996024;28;20242;-85
2022/03/24 02:27:49;;;;;;;35.27;17.47;;;4.90;99.90;;;;;;4994939;28;20286;-82
2022/03/24 02:30:15;;;;;;;42.73;17.53;;;4.90;99.90;;;;;;4997248;28;20287;-82
2022/03/24 02:32:42;;;;;;;40.17;17.63;;;4.90;99.90;;;;;;4990226;28;20251;-84
2022/03/24 02:35:09;;;;;;;46.00;18.63;;;4.80;99.90;;;;;;4984525;28;20794;-84
2022/03/24 02:37:37;;;;;;;32.90;16.33;;;4.80;99.90;;;;;;5012055;28;20215;-84
2022/03/24 02:40:06;;;;;;;41.43;18.47;;;4.70;99.90;;;;;;5008449;28;20290;-83
2022/03/24 02:42:32;;;;;;;36.43;17.63;;;4.70;99.90;;;;;;5000185;28;20321;-84
2022/03/24 02:45:06;;;;;;;34.57;17.60;;;4.70;99.90;;;;;;5008449;28;20713;-84
2022/03/24 02:47:33;;;;;;;41.67;17.87;;;4.70;99.90;;;;;;5012492;28;20225;-85
2022/03/24 02:50:02;;;;;;;40.47;19.50;;;4.60;99.90;;;;;;4994095;28;20246;-85
2022/03/24 02:52:32;;;;;;;41.97;17.93;;;4.60;99.90;;;;;;4995645;28;20726;-84
2022/03/24 02:55:00;;;;;;;37.00;17.17;;;4.50;99.90;;;;;;5010470;28;20338;-84
2022/03/24 02:57:28;;;;;;;39.63;17.50;;;4.50;99.90;;;;;;5019048;28;20230;-84
2022/03/24 02:59:55;;;;;;;37.67;17.40;;;4.50;99.90;;;;;;4993469;28;20668;-84
2022/03/24 03:02:22;;;;;;;35.67;16.57;;;4.50;99.90;;;;;;5009765;28;20238;-84
2022/03/24 03:04:53;;;;;;;38.60;16.47;;;4.40;99.90;;;;;;4984885;28;20664;-85
2022/03/24 03:07:20;;;;;;;33.33;15.70;;;4.40;99.90;;;;;;5007616;28;20678;-84
2022/03/24 03:09:48;;;;;;;37.13;18.07;;;4.30;99.90;;;;;;5004422;28;20254;-85
2022/03/24 03:12:18;;;;;;;36.33;17.00;;;3.90;99.90;;;;;;4986160;28;20298;-82
2022/03/24 03:14:46;;;;;;;32.33;15.33;;;4.30;99.90;;;;;;5001075;28;20230;-85
2022/03/24 03:17:17;;;;;;;34.00;17.60;;;4.20;99.90;;;;;;4988285;28;20350;-83
2022/03/24 03:19:49;;;;;;;35.67;16.50;;;4.20;99.90;;;;;;5008951;28;20666;-85
2022/03/24 03:22:16;;;;;;;37.13;16.87;;;4.20;99.90;;;;;;5011231;28;20234;-83
2022/03/24 03:24:44;;;;;;;31.73;15.47;;;4.10;99.90;;;;;;5010896;28;20244;-84
2022/03/24 03:27:12;;;;;;;37.87;17.57;;;4.10;99.90;;;;;;4994830;28;20549;-85
2022/03/24 03:29:40;;;;;;;35.37;16.73;;;;;;;;;;4993044;28;20281;-83
2022/03/24 03:32:09;;;;;;;36.23;17.17;;;4.00;99.90;;;;;;5010310;28;20250;-85
2022/03/24 03:34:36;;;;;;;31.83;15.90;;;4.00;99.90;;;;;;4997545;28;20750;-84
2022/03/24 03:37:03;;;;;;;41.07;17.77;;;3.90;99.90;;;;;;4985139;28;20258;-84
2022/03/24 03:39:31;;;;;;;33.93;16.77;;;3.90;99.90;;;;;;4985369;28;20269;-82
2022/03/24 03:41:58;;;;;;;39.63;16.67;;;3.90;99.90;;;;;;4986451;28;20207;-82
2022/03/24 03:44:26;;;;;;;38.27;17.80;;;3.90;99.90;;;;;;4972513;28;20207;-83
2022/03/24 03:46:54;;;;;;;40.60;18.40;;;3.80;99.90;;;;;;4986931;28;20332;-84
2022/03/24 03:49:21;;;;;;;36.57;17.33;;;3.80;99.90;;;;;;4989250;28;20605;-86
2022/03/24 03:52:05;;;;;;;41.83;18.77;;;3.80;99.90;;;;;;4975994;28;20211;-84
2022/03/24 03:54:32;;;;;;;40.97;17.23;;;3.70;99.90;;;;;;4987066;28;20330;-83
2022/03/24 03:56:58;;;;;;;39.60;18.27;;;3.70;99.90;;;;;;4990209;28;20619;-84
2022/03/24 03:59:26;;;;;;;36.00;18.10;;;3.70;99.90;;;;;;4976394;28;20294;-83
2022/03/24 04:01:55;;;;;;;40.73;17.93;;;3.70;99.90;;;;;;4976406;28;20254;-84
2022/03/24 04:04:22;;;;;;;38.63;18.43;;;3.60;99.90;;;;;;4968652;28;20326;-84
2022/03/24 04:06:50;;;;;;;35.23;17.20;;;3.60;99.90;;;;;;4982550;28;20310;-83
2022/03/24 04:09:17;;;;;;;34.97;17.17;;;3.60;99.90;;;;;;4988998;28;20331;-84
2022/03/24 04:11:46;;;;;;;45.13;19.30;;;3.60;99.90;;;;;;4970291;28;20330;-85
2022/03/24 04:14:14;;;;;;;39.93;17.90;;;3.50;99.90;;;;;;4991078;28;20265;-85
2022/03/24 04:16:41;;;;;;;40.83;17.53;;;3.50;99.90;;;;;;4976344;28;20688;-83
2022/03/24 04:19:09;;;;;;;44.90;18.57;;;3.50;99.90;;;;;;4972040;28;20810;-85
2022/03/24 04:21:36;;;;;;;40.13;18.53;;;3.40;99.90;;;;;;4976278;28;20245;-86
2022/03/24 04:24:03;;;;;;;36.63;17.77;;;3.40;99.90;;;;;;4973208;28;20237;-84
2022/03/24 04:26:30;;;;;;;47.83;20.60;;;3.40;99.90;;;;;;4974370;28;20270;-84
2022/03/24 04:28:58;;;;;;;37.93;17.83;;;3.30;99.90;;;;;;4984711;28;20249;-85
2022/03/24 04:31:26;;;;;;;43.50;19.90;;;3.30;99.90;;;;;;4983661;28;20222;-86
2022/03/24 04:33:53;;;;;;;46.63;20.23;;;3.30;99.90;;;;;;4993551;28;20237;-85
2022/03/24 04:36:21;;;;;;;46.93;21.23;;;3.30;99.90;;;;;;4982498;28;20323;-83
2022/03/24 04:38:48;;;;;;;43.23;19.17;;;3.20;99.90;;;;;;5013676;28;20303;-84
2022/03/24 04:41:16;;;;;;;43.63;20.13;;;3.20;99.90;;;;;;5010934;28;20207;-85
2022/03/24 04:43:43;;;;;;;38.13;17.37;;;3.20;99.90;;;;;;4996571;28;20260;-84
2022/03/24 04:46:10;;;;;;;39.57;19.27;;;3.20;99.90;;;;;;5010587;28;20292;-84
2022/03/24 04:48:37;;;;;;;40.53;19.47;;;3.10;99.90;;;;;;5007955;28;20206;-85
2022/03/24 04:51:06;;;;;;;39.87;19.30;;;3.10;99.90;;;;;;5010467;28;20202;-85
2022/03/24 04:53:35;;;;;;;45.10;19.30;;;2.70;99.90;;;;;;4991658;28;20218;-84
2022/03/24 04:56:04;;;;;;;39.03;17.57;;;3.20;99.90;;;;;;5010303;28;20304;-84
2022/03/24 04:58:31;;;;;;;46.70;20.37;;;3.00;99.90;;;;;;5000556;28;20262;-86
2022/03/24 05:00:59;;;;;;;42.53;20.27;;;3.00;99.90;;;;;;4999355;28;20229;-85
2022/03/24 05:03:26;;;;;;;42.30;19.87;;;3.00;99.90;;;;;;5000687;28;20901;-84
2022/03/24 05:05:54;;;;;;;43.20;19.87;;;2.90;99.90;;;;;;5005099;28;20213;-84
2022/03/24 05:08:22;;;;;;;48.70;20.87;;;2.90;99.90;;;;;;4990864;28;20217;-85
2022/03/24 05:10:49;;;;;;;39.80;19.13;;;2.90;99.90;;;;;;4991604;28;20222;-85
2022/03/24 05:13:15;;;;;;;42.20;20.13;;;2.90;99.90;;;;;;4994955;28;20271;-84
2022/03/24 05:15:43;;;;;;;42.70;20.57;;;2.80;99.90;;;;;;4994273;28;20251;-85
2022/03/24 05:18:10;;;;;;;53.00;21.67;;;2.80;99.90;;;;;;4993919;28;20675;-85
2022/03/24 05:20:38;;;;;;;48.60;21.37;;;2.80;99.90;;;;;;4993294;28;20293;-86
2022/03/24 05:23:08;;;;;;;51.43;21.90;;;2.80;99.90;;;;;;5013459;28;20209;-84
2022/03/24 05:25:35;;;;;;;48.47;22.13;;;2.70;99.90;;;;;;4993797;28;20232;-83
2022/03/24 05:28:04;;;;;;;47.53;20.23;;;2.70;99.90;;;;;;4993023;28;20216;-86
2022/03/24 05:30:30;;;;;;;45.90;21.07;;;2.80;99.90;;;;;;5005658;28;20245;-86
2022/03/24 05:32:59;;;;;;;52.93;23.10;;;2.70;99.90;;;;;;5013166;28;20207;-85
2022/03/24 05:35:26;;;;;;;45.50;20.23;;;2.70;99.90;;;;;;4999353;28;20240;-84
2022/03/24 05:37:53;;;;;;;48.50;20.77;;;2.70;99.90;;;;;;5009300;28;20300;-85
2022/03/24 05:40:22;;;;;;;43.33;20.43;;;2.80;99.90;;;;;;4992483;28;20221;-86
2022/03/24 05:42:49;;;;;;;49.73;21.13;;;2.70;99.90;;;;;;4994588;28;20245;-84
2022/03/24 05:45:16;;;;;;;46.97;22.00;;;2.80;99.90;;;;;;4994296;28;20277;-82
2022/03/24 05:47:43;;;;;;;44.83;21.30;;;2.60;99.90;;;;;;4997235;28;20235;-86
2022/03/24 05:50:10;;;;;;;50.77;21.40;;;2.60;99.90;;;;;;5009471;28;20254;-85
2022/03/24 05:52:37;;;;;;;45.93;20.50;;;3.00;99.90;;;;;;4994626;28;20656;-84
2022/03/24 05:55:05;;;;;;;48.97;21.03;;;2.70;99.90;;;;;;5009088;28;20307;-85
2022/03/24 05:57:34;;;;;;;46.53;20.33;;;2.70;99.90;;;;;;5014080;28;20205;-85
2022/03/24 06:00:06;;;;;;;49.67;21.90;;;2.70;99.90;;;;;;5006098;28;20647;-85
2022/03/24 06:02:34;;;;;;;49.43;21.20;;;2.80;99.90;;;;;;5007149;28;20232;-85
2022/03/24 06:05:04;;;;;;;49.70;20.73;;;2.80;99.90;;;;;;5011134;28;20246;-87
2022/03/24 06:07:33;;;;;;;44.63;21.50;;;2.80;99.90;;;;;;5005395;28;20328;-83
2022/03/24 06:09:59;;;;;;;43.13;20.67;;;2.80;99.90;;;;;;4988493;28;20216;-85
2022/03/24 06:12:26;;;;;;;49.90;21.43;;;2.80;99.90;;;;;;5010610;28;20210;-85
2022/03/24 06:14:59;;;;;;;50.23;20.80;;;2.90;99.90;;;;;;5012508;28;20233;-85
2022/03/24 06:17:26;;;;;;;52.00;21.10;;;2.90;99.90;;;;;;5002666;28;20229;-84
2022/03/24 06:19:53;;;;;;;55.53;22.27;;;2.90;99.90;;;;;;4995129;28;20258;-86
2022/03/24 06:22:20;;;;;;;51.13;22.10;;;3.00;99.90;;;;;;4989819;28;20253;-85
2022/03/24 06:24:47;;;;;;;48.53;21.23;;;3.00;99.90;;;;;;5009712;28;20221;-86
2022/03/24 06:27:17;;;;;;;44.83;20.50;;;3.10;99.90;;;;;;5000167;28;20516;-86
2022/03/24 06:29:44;;;;;;;46.87;22.53;;;3.10;99.90;;;;;;5009489;28;20296;-85
2022/03/24 06:32:11;;;;;;;43.20;21.70;;;3.20;99.90;;;;;;5010298;28;20290;-84
2022/03/24 06:34:38;;;;;;;52.30;23.07;;;3.20;99.90;;;;;;5009246;28;20238;-85
2022/03/24 06:37:06;;;;;;;51.53;22.70;;;3.30;99.90;;;;;;5012536;28;20684;-85
2022/03/24 06:39:33;;;;;;;46.13;22.77;;;3.40;99.90;;;;;;5007540;28;20221;-85
2022/03/24 06:42:01;;;;;;;51.83;23.83;;;3.50;99.90;;;;;;5014073;28;20218;-83
2022/03/24 06:44:29;;;;;;;59.20;25.53;;;3.50;99.90;;;;;;5016023;28;20299;-84
2022/03/24 06:46:57;;;;;;;48.83;21.70;;;3.70;99.90;;;;;;5003181;28;20256;-84
2022/03/24 06:49:24;;;;;;;52.90;23.87;;;3.70;99.90;;;;;;5007728;28;20237;-83
2022/03/24 06:51:51;;;;;;;45.37;22.00;;;3.80;99.90;;;;;;5007640;28;20631;-83
2022/03/24 06:54:18;;;;;;;53.33;24.23;;;3.90;99.90;;;;;;5000046;28;20270;-83
2022/03/24 06:56:44;;;;;;;52.63;24.17;;;3.90;99.90;;;;;;5003606;28;20294;-82
2022/03/24 06:59:11;;;;;;;59.40;25.33;;;4.00;99.90;;;;;;5006962;28;20299;-83
2022/03/24 07:01:40;;;;;;;53.03;25.43;;;4.30;99.90;;;;;;4993966;28;20283;-83
2022/03/24 07:04:07;;;;;;;51.73;23.57;;;5.20;99.90;;;;;;5008608;28;20273;-83
2022/03/24 07:06:34;;;;;;;47.53;21.57;;;;;;;;;;5002983;28;20355;-83
2022/03/24 07:09:01;;;;;;;44.03;22.33;;;8.70;99.90;;;;;;5005158;28;20702;-82
2022/03/24 07:11:28;;;;;;;44.83;21.63;;;8.70;99.90;;;;;;5005522;28;20210;-84
2022/03/24 07:13:55;;;;;;;42.73;22.63;;;9.80;99.90;;;;;;5007089;28;20206;-85
2022/03/24 07:16:22;;;;;;;45.50;23.40;;;10.80;99.90;;;;;;5006745;28;20307;-84
2022/03/24 07:18:49;;;;;;;41.47;22.67;;;11.70;99.90;;;;;;4991963;28;20233;-88
2022/03/24 07:21:19;;;;;;;46.33;23.60;;;12.40;99.90;;;;;;5016389;28;20233;-87
2022/03/24 07:23:46;;;;;;;41.20;22.87;;;13.00;99.90;;;;;;4989166;28;20298;-83
2022/03/24 07:26:13;;;;;;;47.23;24.43;;;13.50;99.90;;;;;;4994709;28;20226;-84
2022/03/24 07:28:40;;;;;;;44.83;25.20;;;14.00;99.90;;;;;;5011297;28;20221;-84
2022/03/24 07:31:13;;;;;;;43.80;24.73;;;14.50;99.90;;;;;;5006615;28;20250;-87
2022/03/24 07:33:39;;;;;;;41.00;22.37;;;15.00;99.90;;;;;;5012150;28;20261;-84
2022/03/24 07:36:07;;;;;;;38.60;22.20;;;15.50;99.90;;;;;;4990244;28;20269;-86
2022/03/24 07:38:36;;;;;;;44.53;24.83;;;16.00;99.90;;;;;;5014136;28;20205;-91
2022/03/24 07:41:15;;;;;;;44.05;25.83;;;16.40;99.90;;;;;;5012484;28;20187;-91
2022/03/24 07:43:46;;;;;;;47.97;27.88;;;16.70;99.90;;;;;;5006862;28;20340;-90
2022/03/24 07:46:20;;;;;;;47.40;27.83;;;16.90;99.90;;;;;;5005478;28;20214;-90
2022/03/24 07:48:49;;;;;;;44.58;27.73;;;17.20;99.90;;;;;;5003130;28;20206;-89
2022/03/24 07:51:16;;;;;;;46.00;27.50;;;17.40;99.90;;;;;;5005767;28;20210;-88
2022/03/24 07:53:51;;;;;;;46.92;27.50;;;17.50;99.40;;;;;;5010360;28;20241;-89
2022/03/24 07:56:23;;;;;;;45.15;27.85;;;17.70;98.80;;;;;;5018284;28;20293;-89
2022/03/24 07:58:55;;;;;;;45.50;27.48;;;17.80;98.00;;;;;;4995618;28;20261;-90
2022/03/24 08:01:30;;;;;;;47.47;28.48;;;17.90;96.80;;;;;;4994338;28;20290;-91
2022/03/24 08:04:03;;;;;;;46.58;27.95;;;18.10;97.00;;;;;;4994393;28;20666;-92
2022/03/24 08:06:35;;;;;;;48.15;29.50;;;18.30;96.40;;;;;;4999552;28;20717;-91
2022/03/24 08:09:03;;;;;;;49.75;30.13;;;18.40;95.80;;;;;;5009330;28;20234;-90
2022/03/24 08:11:30;;;;;;;45.08;28.83;;;18.50;95.30;;;;;;4996663;28;20243;-88
2022/03/24 08:13:57;;;;;;;49.15;29.15;;;18.60;94.70;;;;;;4995905;28;20309;-88
2022/03/24 08:16:25;;;;;;;48.22;29.10;;;18.70;94.40;;;;;;4994261;28;20509;-91
2022/03/24 08:18:56;;;;;;;45.75;28.50;;;18.90;93.90;;;;;;5010166;28;20191;-86
2022/03/24 08:21:23;;;;;;;46.83;27.98;;;18.90;93.90;;;;;;5006091;28;20202;-87
2022/03/24 08:23:51;;;;;;;46.67;28.25;;;19.00;94.10;;;;;;4999227;28;20206;-90
2022/03/24 08:26:18;;;;;;;45.45;28.17;;;18.90;93.40;;;;;;5000070;28;20289;-91
2022/03/24 08:28:56;;;;;;;43.95;28.17;;;18.90;93.70;;;;;;5012026;28;20207;-88
2022/03/24 08:31:27;;;;;;;46.30;28.10;;;19.00;93.70;;;;;;4993051;28;20625;-88
2022/03/24 08:33:57;;;;;;;45.85;27.95;;;19.20;93.50;;;;;;4991799;28;20202;-87
2022/03/24 08:36:25;;;;;;;47.83;28.95;;;19.40;93.30;;;;;;5012691;28;20325;-89
2022/03/24 08:38:56;;;;;;;43.85;27.05;;;19.40;92.20;;;;;;5016214;28;20615;-90
2022/03/24 08:41:24;;;;;;;50.38;28.73;;;19.50;92.10;;;;;;5005189;28;20207;-89
2022/03/24 08:43:51;;;;;;;46.58;30.25;;;19.60;91.90;;;;;;5024846;28;20207;-95
2022/03/24 08:46:25;;;;;;;50.85;30.38;;;19.70;91.40;;;;;;5027780;28;20232;-91
2022/03/24 08:48:53;;;;;;;46.67;29.02;;;19.90;91.00;;;;;;5011575;28;20268;-90
2022/03/24 08:51:22;;;;;;;46.95;29.40;;;20.00;90.70;;;;;;5018459;28;20210;-92
2022/03/24 08:53:50;;;;;;;48.08;30.30;;;20.00;90.40;;;;;;5030617;28;20206;-89
2022/03/24 08:56:17;;;;;;;52.80;30.63;;;19.90;90.50;;;;;;5011092;28;20253;-88
2022/03/24 08:58:46;;;;;;;47.90;29.33;;;19.90;90.10;;;;;;5012255;28;20229;-91
2022/03/24 09:01:14;;;;;;;51.65;30.92;;;19.80;90.00;;;;;;5004041;28;20222;-88
2022/03/24 09:03:41;;;;;;;50.08;30.58;;;19.90;89.60;;;;;;5004977;28;20293;-88
2022/03/24 09:06:09;;;;;;;46.53;30.35;;;19.90;88.70;;;;;;5027589;28;20202;-88
2022/03/24 09:08:36;;;;;;;52.45;31.40;;;19.90;89.30;;;;;;5018618;28;20198;-86
2022/03/24 09:11:08;;;;;;;46.33;29.30;;;19.90;88.90;;;;;;5007585;28;20222;-86
2022/03/24 09:13:40;;;;;;;52.58;30.33;;;20.00;88.10;;;;;;5004663;28;20877;-90
2022/03/24 09:16:08;;;;;;;47.80;29.48;;;20.10;87.70;;;;;;5003459;28;20805;-89
2022/03/24 09:18:36;;;;;;;52.92;28.90;;;20.40;87.40;;;;;;5030495;28;20194;-90
2022/03/24 09:21:03;;;;;;;47.90;29.65;;;20.20;85.40;;;;;;5028828;28;20247;-88
2022/03/24 09:23:31;;;;;;;49.60;28.63;;;20.10;85.90;;;;;;5000693;28;20284;-85
2022/03/24 09:25:58;;;;;;;52.40;28.83;;;19.60;85.80;;;;;;4996964;28;20202;-87
2022/03/24 09:28:47;;;;;;;48.20;28.00;;;19.30;86.40;;;;;;5007894;28;20248;-84
2022/03/24 09:31:14;;;;;;;46.92;28.10;;;19.20;87.50;;;;;;5032487;28;20222;-91
2022/03/24 09:33:42;;;;;;;51.00;29.48;;;19.10;87.40;;;;;;5037492;28;20217;-92
2022/03/24 09:36:09;;;;;;;48.65;28.52;;;19.10;88.00;;;;;;5012493;28;20246;-86
2022/03/24 09:38:36;;;;;;;48.75;29.02;;;19.20;88.30;;;;;;5010670;28;20313;-86
2022/03/24 09:41:05;;;;;;;43.83;26.92;;;19.20;88.30;;;;;;5016139;28;20211;-86
2022/03/24 09:43:34;;;;;;;47.30;28.23;;;19.30;87.50;;;;;;4997187;28;20213;-86
2022/03/24 09:46:02;;;;;;;54.47;29.33;;;19.30;87.30;;;;;;5012753;28;20219;-87
2022/03/24 09:48:30;;;;;;;49.10;28.25;;;19.30;87.20;;;;;;5009197;28;20191;-90
2022/03/24 09:50:57;;;;;;;47.67;29.80;;;19.30;87.20;;;;;;5001752;28;20237;-89
2022/03/24 09:53:24;;;;;;;48.92;28.60;;;19.20;88.10;;;;;;5006854;28;20203;-89
2022/03/24 09:55:51;;;;;;;51.08;29.02;;;19.00;89.00;;;;;;5021226;28;20222;-88
2022/03/24 09:58:24;;;;;;;49.20;28.92;;;19.00;89.50;;;;;;5015791;28;20663;-87
2022/03/24 10:00:54;;;;;;;50.45;28.02;;;18.90;89.30;;;;;;5012245;28;20285;-88
2022/03/24 10:03:22;;;;;;;47.80;28.15;;;18.70;90.00;;;;;;5028803;28;20282;-86
2022/03/24 10:06:06;;;;;;;50.33;29.23;;;18.70;90.20;;;;;;5023744;28;20206;-88
2022/03/24 10:08:37;;;;;;;48.63;29.15;;;18.70;90.00;;;;;;5028605;28;20206;-89
2022/03/24 10:11:07;;;;;;;50.85;28.13;;;18.70;90.20;;;;;;5008626;28;20269;-88
2022/03/24 10:13:54;;;;;;;48.65;28.45;;;18.60;90.30;;;;;;5004812;28;20325;-87
2022/03/24 10:16:34;;;;;;;50.30;27.95;;;18.60;90.60;;;;;;4998054;28;20226;-87
2022/03/24 10:19:09;;;;;;;49.75;28.92;;;18.60;90.90;;;;;;5015034;28;20291;-89
2022/03/24 10:21:40;;;;;;;48.95;28.25;;;18.70;90.90;;;;;;5000581;28;20256;-88
2022/03/24 10:24:13;;;;;;;47.53;28.42;;;18.70;90.90;;;;;;4999871;28;20651;-87
2022/03/24 10:27:02;;;;;;;51.67;28.08;;;18.70;90.90;;;;;;5014748;28;20191;-89
2022/03/24 10:29:31;;;;;;;52.15;28.02;;;18.80;90.90;;;;;;5004018;28;20276;-92
2022/03/24 10:32:00;;;;;;;47.78;27.27;;;18.80;90.70;;;;;;5003302;28;20218;-85
2022/03/24 10:34:34;;;;;;;49.72;27.73;;;18.70;90.20;;;;;;4994260;28;20214;-87
2022/03/24 10:37:13;;;;;;;48.70;28.52;;;18.40;90.20;;;;;;5012657;28;20234;-87
2022/03/24 10:40:08;;;;;;;47.00;28.30;;;18.20;90.70;;;;;;5000418;28;20210;-87
2022/03/24 10:42:38;;;;;;;48.33;26.60;;;18.10;90.70;;;;;;4997618;28;20221;-87
2022/03/24 10:45:06;;;;;;;49.35;26.90;;;18.10;91.00;;;;;;4996119;28;20211;-88
2022/03/24 10:47:49;;;;;;;46.13;26.52;;;18.20;90.80;;;;;;5007715;28;20210;-88
2022/03/24 10:50:52;;;;;;;46.05;26.85;;;18.20;90.60;;;;;;5013751;28;20292;-86
2022/03/24 10:53:20;;;;;;;44.65;26.40;;;18.30;90.60;;;;;;5010782;28;20650;-91
2022/03/24 10:55:57;;;;;;;46.67;25.70;;;18.30;90.80;;;;;;5009143;28;20365;-89
2022/03/24 10:58:43;;;;;;;47.00;26.58;;;18.40;90.80;;;;;;4997392;28;20542;-86
2022/03/24 11:01:14;;;;;;;45.25;25.60;;;18.40;90.30;;;;;;4989817;28;20284;-86
2022/03/24 11:03:45;;;;;;;43.60;23.77;;;18.50;90.50;;;;;;5009070;28;20650;-86
2022/03/24 11:06:22;;;;;;;43.95;25.98;;;18.60;90.50;;;;;;4992916;28;20206;-89
2022/03/24 11:08:59;;;;;;;41.63;23.52;;;18.70;90.40;;;;;;4994247;28;20194;-87
2022/03/24 11:11:28;;;;;;;39.90;23.65;;;18.80;90.40;;;;;;5005048;28;20284;-86
2022/03/24 11:14:00;;;;;;;41.55;22.83;;;18.90;90.20;;;;;;4995737;28;20205;-88
2022/03/24 11:16:31;;;;;;;42.90;23.23;;;19.00;90.00;;;;;;5011867;28;20256;-87
2022/03/24 11:19:18;;;;;;;36.78;20.50;;;19.00;89.60;;;;;;5003988;28;20203;-92
2022/03/24 11:21:58;;;;;;;38.25;21.80;;;19.20;88.90;;;;;;4996827;28;20202;-86
2022/03/24 11:24:25;;;;;;;38.40;21.67;;;19.30;86.80;;;;;;5010713;28;20233;-88
2022/03/24 11:26:53;;;;;;;35.72;21.45;;;19.30;87.30;;;;;;5012860;28;20281;-92
2022/03/24 11:29:23;;;;;;;36.00;21.08;;;19.40;87.40;;;;;;4990853;28;20207;-89
2022/03/24 11:31:53;;;;;;;35.30;19.92;;;19.40;86.00;;;;;;5019957;28;20222;-91
2022/03/24 11:34:22;;;;;;;33.72;18.35;;;19.40;86.00;;;;;;5000687;28;20215;-87
2022/03/24 11:36:50;;;;;;;31.55;17.90;;;19.50;85.40;;;;;;5014168;28;20253;-91
2022/03/24 11:39:17;;;;;;;33.33;18.42;;;19.60;81.80;;;;;;5007552;28;20209;-86
2022/03/24 11:41:49;;;;;;;33.53;18.95;;;19.60;83.20;;;;;;5011141;28;20290;-85
2022/03/24 11:44:20;;;;;;;33.08;18.92;;;19.60;82.80;;;;;;4994660;28;20230;-90
2022/03/24 11:46:59;;;;;;;34.05;18.55;;;19.60;82.30;;;;;;4994330;28;20583;-91
2022/03/24 11:49:28;;;;;;;35.58;20.20;;;19.70;83.10;;;;;;4992165;28;20206;-91
2022/03/24 11:51:58;;;;;;;32.13;19.45;;;19.80;83.70;;;;;;4998975;28;20207;-88
2022/03/24 11:54:37;;;;;;;29.33;15.60;;;20.00;84.00;;;;;;4997001;28;20663;-87
2022/03/24 11:57:31;;;;;;;25.02;15.20;;;20.10;79.60;;;;;;5013059;28;20272;-90
2022/03/24 12:00:16;;;;;;;27.88;16.73;;;20.10;77.40;;;;;;5001165;28;20198;-90
2022/03/24 12:02:45;;;;;;;33.00;17.58;;;20.20;75.70;;;;;;5020051;28;20278;-90
2022/03/24 12:05:14;;;;;;;30.83;17.20;;;20.30;76.40;;;;;;4990832;28;20195;-85
2022/03/24 12:07:41;;;;;;;27.48;16.48;;;20.40;76.40;;;;;;4987669;28;20757;-87
2022/03/24 12:10:16;;;;;;;26.90;16.00;;;20.60;75.00;;;;;;4990062;28;20640;-85
2022/03/24 12:13:21;;;;;;;24.52;15.18;;;20.70;73.90;;;;;;4994143;28;20213;-87
2022/03/24 12:16:21;;;;;;;31.63;18.17;;;20.90;70.20;;;;;;5011946;28;20230;-86
2022/03/24 12:18:48;;;;;;;30.67;17.20;;;20.90;71.60;;;;;;5002201;28;20662;-86
2022/03/24 12:21:30;;;;;;;27.58;17.73;;;21.00;71.00;;;;;;5005052;28;20260;-86
2022/03/24 12:24:15;;;;;;;30.98;16.90;;;20.90;67.20;;;;;;4992552;28;20222;-85
2022/03/24 12:26:51;;;;;;;33.55;16.65;;;20.80;67.90;;;;;;5013774;28;20209;-86
2022/03/24 12:29:23;;;;;;;27.25;16.95;;;20.80;68.10;;;;;;5005117;28;20256;-83
2022/03/24 12:32:05;;;;;;;27.15;16.58;;;20.90;68.00;;;;;;5004580;28;20301;-82
2022/03/24 12:34:37;;;;;;;24.23;14.93;;;21.00;67.90;;;;;;5001025;28;20317;-83
2022/03/24 12:37:29;;;;;;;21.80;13.05;;;21.10;67.60;;;;;;5003285;28;20703;-84
2022/03/24 12:40:11;;;;;;;25.45;14.75;;;21.10;66.50;;;;;;5000528;28;20663;-84
2022/03/24 12:42:47;;;;;;;27.40;16.52;;;21.30;66.40;;;;;;4983412;28;20663;-86
2022/03/24 12:45:25;;;;;;;25.48;14.82;;;21.30;67.00;;;;;;4984472;28;20598;-87
2022/03/24 12:47:59;;;;;;;21.33;12.35;;;21.30;66.60;;;;;;5002829;28;20202;-87